sensor_id;sensor_type;location;lat;lon;timestamp;pressure;altitude;pressure_sealevel;temperature;humidity
7832;BME280;3961;42.058;25.586;2023-05-01T00:00:48;63679.34;;;12.96;100.00
7832;BME280;3961;42.058;25.586;2023-05-01T00:03:14;63644.81;;;12.68;100.00
7832;BME280;3961;42.058;25.586;2023-05-01T00:05:42;63652.34;;;12.74;100.00
7832;BME280;3961;42.058;25.586;2023-05-01T00:08:08;63672.06;;;12.92;100.00
7832;BME280;3961;42.058;25.586;2023-05-01T00:10:35;63668.69;;;12.84;100.00
7832;BME280;3961;42.058;25.586;2023-05-01T00:13:01;63634.19;;;12.56;100.00
7832;BME280;3961;42.058;25.586;2023-05-01T00:15:26;63627.81;;;12.51;100.00
7832;BME280;3961;42.058;25.586;2023-05-01T00:17:52;63631.53;;;12.56;100.00
7832;BME280;3961;42.058;25.586;2023-05-01T00:20:18;63619.72;;;12.43;100.00
7832;BME280;3961;42.058;25.586;2023-05-01T00:22:44;63625.25;;;12.46;100.00
7832;BME280;3961;42.058;25.586;2023-05-01T00:25:09;63609.31;;;12.34;100.00
7832;BME280;3961;42.058;25.586;2023-05-01T00:27:35;63634.53;;;12.54;100.00
7832;BME280;3961;42.058;25.586;2023-05-01T00:30:00;63612.53;;;12.35;100.00
7832;BME280;3961;42.058;25.586;2023-05-01T00:32:26;63604.44;;;12.28;100.00
7832;BME280;3961;42.058;25.586;2023-05-01T00:34:52;63607.00;;;12.32;100.00
7832;BME280;3961;42.058;25.586;2023-05-01T00:37:17;63564.06;;;11.99;100.00
7832;BME280;3961;42.058;25.586;2023-05-01T00:39:43;63594.25;;;12.21;100.00
7832;BME280;3961;42.058;25.586;2023-05-01T00:42:08;63582.09;;;12.10;100.00
7832;BME280;3961;42.058;25.586;2023-05-01T00:44:34;63547.41;;;11.80;100.00
7832;BME280;3961;42.058;25.586;2023-05-01T00:47:00;63598.06;;;12.22;100.00
7832;BME280;3961;42.058;25.586;2023-05-01T00:49:26;63595.75;;;12.20;100.00
7832;BME280;3961;42.058;25.586;2023-05-01T00:51:53;63617.06;;;12.43;100.00
7832;BME280;3961;42.058;25.586;2023-05-01T00:54:19;63620.63;;;12.42;100.00
7832;BME280;3961;42.058;25.586;2023-05-01T00:56:50;63594.84;;;12.22;100.00
7832;BME280;3961;42.058;25.586;2023-05-01T00:59:16;63583.03;;;12.09;100.00
7832;BME280;3961;42.058;25.586;2023-05-01T01:01:42;63585.56;;;12.14;100.00
7832;BME280;3961;42.058;25.586;2023-05-01T01:04:08;63576.53;;;12.08;100.00
7832;BME280;3961;42.058;25.586;2023-05-01T01:12:21;63575.50;;;12.02;100.00
7832;BME280;3961;42.058;25.586;2023-05-01T01:17:31;63564.19;;;11.95;100.00
7832;BME280;3961;42.058;25.586;2023-05-01T01:22:46;63546.25;;;11.79;100.00
7832;BME280;3961;42.058;25.586;2023-05-01T01:25:38;63557.22;;;11.89;100.00
7832;BME280;3961;42.058;25.586;2023-05-01T01:28:38;63563.03;;;11.94;100.00
7832;BME280;3961;42.058;25.586;2023-05-01T01:31:19;63547.63;;;11.83;100.00
7832;BME280;3961;42.058;25.586;2023-05-01T01:36:42;63553.19;;;11.85;100.00
7832;BME280;3961;42.058;25.586;2023-05-01T01:39:22;63544.75;;;11.80;100.00
7832;BME280;3961;42.058;25.586;2023-05-01T01:41:50;63535.25;;;11.69;100.00
7832;BME280;3961;42.058;25.586;2023-05-01T01:44:36;63512.09;;;11.49;100.00
7832;BME280;3961;42.058;25.586;2023-05-01T01:47:05;63537.44;;;11.76;100.00
7832;BME280;3961;42.058;25.586;2023-05-01T01:49:33;63534.09;;;11.68;100.00
7832;BME280;3961;42.058;25.586;2023-05-01T01:52:02;63538.13;;;11.72;100.00
7832;BME280;3961;42.058;25.586;2023-05-01T01:54:34;63524.50;;;11.62;100.00
7832;BME280;3961;42.058;25.586;2023-05-01T01:57:02;63514.06;;;11.53;100.00
7832;BME280;3961;42.058;25.586;2023-05-01T01:59:30;63514.19;;;11.49;100.00
7832;BME280;3961;42.058;25.586;2023-05-01T02:01:58;63504.25;;;11.44;100.00
7832;BME280;3961;42.058;25.586;2023-05-01T02:04:26;63483.78;;;11.24;100.00
7832;BME280;3961;42.058;25.586;2023-05-01T02:06:55;63475.69;;;11.17;100.00
7832;BME280;3961;42.058;25.586;2023-05-01T02:09:22;63471.06;;;11.13;100.00
7832;BME280;3961;42.058;25.586;2023-05-01T02:11:49;63463.34;;;11.04;100.00
7832;BME280;3961;42.058;25.586;2023-05-01T02:14:17;63488.19;;;11.26;100.00
7832;BME280;3961;42.058;25.586;2023-05-01T02:16:43;63472.22;;;11.14;100.00
7832;BME280;3961;42.058;25.586;2023-05-01T02:19:10;63490.16;;;11.30;100.00
7832;BME280;3961;42.058;25.586;2023-05-01T02:21:37;63493.50;;;11.37;100.00
7832;BME280;3961;42.058;25.586;2023-05-01T02:24:04;63502.84;;;11.41;100.00
7832;BME280;3961;42.058;25.586;2023-05-01T02:26:35;63479.16;;;11.20;100.00
7832;BME280;3961;42.058;25.586;2023-05-01T02:29:02;63484.38;;;11.25;100.00
7832;BME280;3961;42.058;25.586;2023-05-01T02:31:31;63505.16;;;11.43;100.00
7832;BME280;3961;42.058;25.586;2023-05-01T02:33:57;63478.00;;;11.19;100.00
7832;BME280;3961;42.058;25.586;2023-05-01T02:36:22;63489.56;;;11.29;100.00
7832;BME280;3961;42.058;25.586;2023-05-01T02:38:48;63492.13;;;11.34;100.00
7832;BME280;3961;42.058;25.586;2023-05-01T02:41:15;63475.13;;;11.17;100.00
7832;BME280;3961;42.058;25.586;2023-05-01T02:43:44;63474.19;;;11.18;100.00
7832;BME280;3961;42.058;25.586;2023-05-01T02:46:11;63447.38;;;10.92;100.00
7832;BME280;3961;42.058;25.586;2023-05-01T02:48:39;63484.38;;;11.25;100.00
7832;BME280;3961;42.058;25.586;2023-05-01T02:51:06;63477.53;;;11.14;100.00
7832;BME280;3961;42.058;25.586;2023-05-01T02:53:32;63465.41;;;11.03;100.00
7832;BME280;3961;42.058;25.586;2023-05-01T02:55:58;63455.47;;;10.99;100.00
7832;BME280;3961;42.058;25.586;2023-05-01T02:58:24;63470.50;;;11.13;100.00
7832;BME280;3961;42.058;25.586;2023-05-01T03:00:50;63466.69;;;11.11;100.00
7832;BME280;3961;42.058;25.586;2023-05-01T03:03:15;63468.75;;;11.11;100.00
7832;BME280;3961;42.058;25.586;2023-05-01T03:05:41;63479.75;;;11.21;100.00
7832;BME280;3961;42.058;25.586;2023-05-01T03:08:07;63482.88;;;11.26;100.00
7832;BME280;3961;42.058;25.586;2023-05-01T03:10:33;63478.47;;;11.24;100.00
7832;BME280;3961;42.058;25.586;2023-05-01T03:12:59;63486.69;;;11.27;100.00
7832;BME280;3961;42.058;25.586;2023-05-01T03:15:25;63464.94;;;11.10;100.00
7832;BME280;3961;42.058;25.586;2023-05-01T03:17:50;63460.69;;;11.04;100.00
7832;BME280;3961;42.058;25.586;2023-05-01T03:20:16;63483.44;;;11.26;100.00
7832;BME280;3961;42.058;25.586;2023-05-01T03:22:41;63495.34;;;11.34;100.00
7832;BME280;3961;42.058;25.586;2023-05-01T03:25:07;63477.78;;;11.17;100.00
7832;BME280;3961;42.058;25.586;2023-05-01T03:27:33;63470.25;;;11.10;100.00
7832;BME280;3961;42.058;25.586;2023-05-01T03:29:59;63482.28;;;11.25;100.00
7832;BME280;3961;42.058;25.586;2023-05-01T03:32:24;63489.81;;;11.32;100.00
7832;BME280;3961;42.058;25.586;2023-05-01T03:34:50;63499.38;;;11.38;100.00
7832;BME280;3961;42.058;25.586;2023-05-01T03:37:15;63509.78;;;11.47;100.00
7832;BME280;3961;42.058;25.586;2023-05-01T03:39:41;63500.53;;;11.39;100.00
7832;BME280;3961;42.058;25.586;2023-05-01T03:42:06;63560.47;;;11.89;100.00
7832;BME280;3961;42.058;25.586;2023-05-01T03:44:32;63584.41;;;12.13;100.00
7832;BME280;3961;42.058;25.586;2023-05-01T03:46:57;63596.00;;;12.23;100.00
7832;BME280;3961;42.058;25.586;2023-05-01T03:49:23;63778.66;;;13.85;100.00
7832;BME280;3961;42.058;25.586;2023-05-01T03:51:48;63892.13;;;14.82;100.00
7832;BME280;3961;42.058;25.586;2023-05-01T03:54:14;64003.25;;;15.82;100.00
7832;BME280;3961;42.058;25.586;2023-05-01T03:56:40;64198.63;;;17.52;100.00
7832;BME280;3961;42.058;25.586;2023-05-01T03:59:05;64218.56;;;17.65;100.00
7832;BME280;3961;42.058;25.586;2023-05-01T04:01:31;64317.41;;;18.56;100.00
7832;BME280;3961;42.058;25.586;2023-05-01T04:03:58;64478.50;;;19.91;98.69
7832;BME280;3961;42.058;25.586;2023-05-01T04:06:24;64584.16;;;20.83;91.93
7832;BME280;3961;42.058;25.586;2023-05-01T04:08:50;64573.09;;;20.73;93.13
7832;BME280;3961;42.058;25.586;2023-05-01T04:11:16;64553.81;;;20.57;92.37
7832;BME280;3961;42.058;25.586;2023-05-01T04:13:41;64550.06;;;20.51;91.23
7832;BME280;3961;42.058;25.586;2023-05-01T04:16:07;64663.78;;;21.48;90.03
7832;BME280;3961;42.058;25.586;2023-05-01T04:18:32;64595.28;;;20.93;87.79
7832;BME280;3961;42.058;25.586;2023-05-01T04:20:58;64613.38;;;21.08;85.72
7832;BME280;3961;42.058;25.586;2023-05-01T04:23:23;64757.81;;;22.34;82.65
7832;BME280;3961;42.058;25.586;2023-05-01T04:25:48;64705.88;;;21.84;81.66
7832;BME280;3961;42.058;25.586;2023-05-01T04:28:14;64762.13;;;22.40;79.68
7832;BME280;3961;42.058;25.586;2023-05-01T04:30:39;64722.13;;;22.03;78.37
7832;BME280;3961;42.058;25.586;2023-05-01T04:33:05;64823.34;;;22.91;76.29
7832;BME280;3961;42.058;25.586;2023-05-01T04:35:39;64846.75;;;23.11;75.44
7832;BME280;3961;42.058;25.586;2023-05-01T04:38:05;64917.03;;;23.72;73.50
7832;BME280;3961;42.058;25.586;2023-05-01T04:40:31;64985.25;;;24.33;71.80
7832;BME280;3961;42.058;25.586;2023-05-01T04:42:56;65120.66;;;25.43;67.56
7832;BME280;3961;42.058;25.586;2023-05-01T04:45:22;65212.50;;;26.25;63.64
7832;BME280;3961;42.058;25.586;2023-05-01T04:47:47;65448.28;;;28.29;55.48
7832;BME280;3961;42.058;25.586;2023-05-01T04:50:13;65306.75;;;27.09;56.49
7832;BME280;3961;42.058;25.586;2023-05-01T04:52:39;65271.84;;;26.76;56.80
7832;BME280;3961;42.058;25.586;2023-05-01T04:55:05;65506.78;;;28.82;51.82
7832;BME280;3961;42.058;25.586;2023-05-01T04:57:30;65273.22;;;26.80;56.18
7832;BME280;3961;42.058;25.586;2023-05-01T04:59:56;65217.41;;;26.32;57.17
7832;BME280;3961;42.058;25.586;2023-05-01T05:02:21;65236.81;;;26.49;56.10
7832;BME280;3961;42.058;25.586;2023-05-01T05:04:47;65262.44;;;26.68;56.21
7832;BME280;3961;42.058;25.586;2023-05-01T05:07:12;65291.59;;;26.91;55.81
7832;BME280;3961;42.058;25.586;2023-05-01T05:09:38;65232.09;;;26.44;57.11
7832;BME280;3961;42.058;25.586;2023-05-01T05:12:03;65539.75;;;29.10;51.12
7832;BME280;3961;42.058;25.586;2023-05-01T05:14:29;65460.28;;;28.41;52.04
7832;BME280;3961;42.058;25.586;2023-05-01T05:16:55;65376.13;;;27.69;53.32
7832;BME280;3961;42.058;25.586;2023-05-01T05:19:21;65196.63;;;26.11;57.29
7832;BME280;3961;42.058;25.586;2023-05-01T05:21:46;65021.38;;;24.62;59.63
7832;BME280;3961;42.058;25.586;2023-05-01T05:24:12;64812.34;;;22.76;65.43
7832;BME280;3961;42.058;25.586;2023-05-01T05:26:38;64619.78;;;21.14;73.39
7832;BME280;3961;42.058;25.586;2023-05-01T05:29:04;64531.38;;;20.35;78.01
7832;BME280;3961;42.058;25.586;2023-05-01T05:31:29;64497.75;;;20.08;80.48
7832;BME280;3961;42.058;25.586;2023-05-01T05:33:55;64389.47;;;19.16;81.95
7832;BME280;3961;42.058;25.586;2023-05-01T05:36:20;64354.13;;;18.88;85.00
7832;BME280;3961;42.058;25.586;2023-05-01T05:38:46;64366.28;;;18.91;85.93
7832;BME280;3961;42.058;25.586;2023-05-01T05:41:11;64341.69;;;18.74;87.01
7832;BME280;3961;42.058;25.586;2023-05-01T05:43:37;64403.25;;;19.26;83.74
7832;BME280;3961;42.058;25.586;2023-05-01T05:46:03;64345.53;;;18.75;84.24
7832;BME280;3961;42.058;25.586;2023-05-01T05:48:28;64338.53;;;18.69;84.51
7832;BME280;3961;42.058;25.586;2023-05-01T05:50:54;64347.16;;;18.82;84.15
7832;BME280;3961;42.058;25.586;2023-05-01T05:53:20;64394.13;;;19.20;82.62
7832;BME280;3961;42.058;25.586;2023-05-01T05:55:46;64325.38;;;18.60;84.43
7832;BME280;3961;42.058;25.586;2023-05-01T05:58:13;64359.16;;;18.90;84.04
7832;BME280;3961;42.058;25.586;2023-05-01T06:00:45;64355.47;;;18.84;86.99
7832;BME280;3961;42.058;25.586;2023-05-01T06:03:10;64280.88;;;18.19;86.25
7832;BME280;3961;42.058;25.586;2023-05-01T06:05:36;64267.47;;;18.07;84.74
7832;BME280;3961;42.058;25.586;2023-05-01T06:08:01;64246.50;;;17.89;91.62
7832;BME280;3961;42.058;25.586;2023-05-01T06:10:27;64278.75;;;18.20;89.09
7832;BME280;3961;42.058;25.586;2023-05-01T06:12:52;64234.50;;;17.81;92.92
7832;BME280;3961;42.058;25.586;2023-05-01T06:15:18;64206.09;;;17.52;92.92
7832;BME280;3961;42.058;25.586;2023-05-01T06:17:43;64257.19;;;18.01;92.24
7832;BME280;3961;42.058;25.586;2023-05-01T06:20:09;64253.13;;;17.97;92.73
7832;BME280;3961;42.058;25.586;2023-05-01T06:22:35;64255.69;;;18.02;94.98
7832;BME280;3961;42.058;25.586;2023-05-01T06:25:00;64233.13;;;17.77;95.19
7832;BME280;3961;42.058;25.586;2023-05-01T06:27:26;64279.13;;;18.18;92.68
7832;BME280;3961;42.058;25.586;2023-05-01T06:29:52;64279.69;;;18.18;93.31
7832;BME280;3961;42.058;25.586;2023-05-01T06:32:17;64229.03;;;17.74;96.66
7832;BME280;3961;42.058;25.586;2023-05-01T06:34:43;64285.72;;;18.26;94.87
7832;BME280;3961;42.058;25.586;2023-05-01T06:37:08;64301.25;;;18.37;92.18
7832;BME280;3961;42.058;25.586;2023-05-01T06:39:34;64273.94;;;18.20;91.54
7832;BME280;3961;42.058;25.586;2023-05-01T06:41:59;64271.19;;;18.13;93.32
7832;BME280;3961;42.058;25.586;2023-05-01T06:44:27;64290.38;;;18.30;93.96
7832;BME280;3961;42.058;25.586;2023-05-01T06:46:53;64315.47;;;18.52;91.52
7832;BME280;3961;42.058;25.586;2023-05-01T06:49:18;64318.56;;;18.57;91.23
7832;BME280;3961;42.058;25.586;2023-05-01T06:51:44;64338.19;;;18.71;87.83
7832;BME280;3961;42.058;25.586;2023-05-01T06:54:09;64350.78;;;18.80;90.74
7832;BME280;3961;42.058;25.586;2023-05-01T06:56:35;64371.19;;;18.98;89.59
7832;BME280;3961;42.058;25.586;2023-05-01T06:59:00;64401.50;;;19.24;91.06
7832;BME280;3961;42.058;25.586;2023-05-01T07:01:26;64413.16;;;19.34;89.81
7832;BME280;3961;42.058;25.586;2023-05-01T07:03:52;64443.50;;;19.61;91.39
7832;BME280;3961;42.058;25.586;2023-05-01T07:06:17;64434.75;;;19.53;89.46
7832;BME280;3961;42.058;25.586;2023-05-01T07:08:42;64448.41;;;19.67;86.97
7832;BME280;3961;42.058;25.586;2023-05-01T07:11:08;64472.66;;;19.86;86.63
7832;BME280;3961;42.058;25.586;2023-05-01T07:13:34;64483.41;;;19.98;85.81
7832;BME280;3961;42.058;25.586;2023-05-01T07:15:59;64474.06;;;19.90;87.95
7832;BME280;3961;42.058;25.586;2023-05-01T07:18:25;64473.81;;;19.87;87.99
7832;BME280;3961;42.058;25.586;2023-05-01T07:20:52;64527.16;;;20.36;85.62
7832;BME280;3961;42.058;25.586;2023-05-01T07:23:18;64521.09;;;20.28;79.64
7832;BME280;3961;42.058;25.586;2023-05-01T07:25:43;64536.66;;;20.39;79.77
7832;BME280;3961;42.058;25.586;2023-05-01T07:28:10;64578.56;;;20.80;79.69
7832;BME280;3961;42.058;25.586;2023-05-01T07:30:35;64602.28;;;20.99;76.79
7832;BME280;3961;42.058;25.586;2023-05-01T07:33:02;64653.94;;;21.46;75.95
7832;BME280;3961;42.058;25.586;2023-05-01T07:35:27;64659.31;;;21.46;76.46
7832;BME280;3961;42.058;25.586;2023-05-01T07:37:53;64638.53;;;21.30;73.99
7832;BME280;3961;42.058;25.586;2023-05-01T07:40:19;64649.28;;;21.42;73.66
7832;BME280;3961;42.058;25.586;2023-05-01T07:42:45;64674.53;;;21.59;72.69
7832;BME280;3961;42.058;25.586;2023-05-01T07:45:10;64627.16;;;21.18;72.79
7832;BME280;3961;42.058;25.586;2023-05-01T07:47:36;64627.63;;;21.23;73.10
7832;BME280;3961;42.058;25.586;2023-05-01T07:50:03;64655.84;;;21.43;74.81
7832;BME280;3961;42.058;25.586;2023-05-01T07:52:28;64634.22;;;21.24;73.20
7832;BME280;3961;42.058;25.586;2023-05-01T07:54:54;64589.44;;;20.88;73.91
7832;BME280;3961;42.058;25.586;2023-05-01T07:57:20;64602.50;;;21.01;74.57
7832;BME280;3961;42.058;25.586;2023-05-01T07:59:47;64556.72;;;20.59;76.16
7832;BME280;3961;42.058;25.586;2023-05-01T08:02:15;64552.88;;;20.58;77.62
7832;BME280;3961;42.058;25.586;2023-05-01T08:04:41;64604.25;;;21.03;76.42
7832;BME280;3961;42.058;25.586;2023-05-01T08:07:06;64601.47;;;20.96;74.18
7832;BME280;3961;42.058;25.586;2023-05-01T08:09:32;64632.69;;;21.25;72.96
7832;BME280;3961;42.058;25.586;2023-05-01T08:11:57;64644.97;;;21.36;71.04
7832;BME280;3961;42.058;25.586;2023-05-01T08:14:23;64599.59;;;20.99;72.27
7832;BME280;3961;42.058;25.586;2023-05-01T08:16:48;64606.97;;;21.03;72.14
7832;BME280;3961;42.058;25.586;2023-05-01T08:19:19;64658.97;;;21.48;69.99
7832;BME280;3961;42.058;25.586;2023-05-01T08:21:44;64635.25;;;21.30;69.51
7832;BME280;3961;42.058;25.586;2023-05-01T08:24:10;64595.28;;;20.93;70.26
7832;BME280;3961;42.058;25.586;2023-05-01T08:26:36;64581.81;;;20.81;71.97
7832;BME280;3961;42.058;25.586;2023-05-01T08:29:01;64614.97;;;21.14;68.73
7832;BME280;3961;42.058;25.586;2023-05-01T08:31:27;64694.63;;;21.79;70.73
7832;BME280;3961;42.058;25.586;2023-05-01T08:33:52;64691.13;;;21.76;69.87
7832;BME280;3961;42.058;25.586;2023-05-01T08:36:18;64613.97;;;21.09;71.54
7832;BME280;3961;42.058;25.586;2023-05-01T08:38:43;64652.34;;;21.40;71.84
7832;BME280;3961;42.058;25.586;2023-05-01T08:41:15;64669.28;;;21.55;72.10
7832;BME280;3961;42.058;25.586;2023-05-01T08:43:41;64667.75;;;21.56;68.00
7832;BME280;3961;42.058;25.586;2023-05-01T08:46:08;64642.75;;;21.29;68.05
7832;BME280;3961;42.058;25.586;2023-05-01T08:48:39;64715.47;;;21.95;69.79
7832;BME280;3961;42.058;25.586;2023-05-01T08:51:09;64663.41;;;21.50;69.23
7832;BME280;3961;42.058;25.586;2023-05-01T08:53:37;64632.91;;;21.28;68.09
7832;BME280;3961;42.058;25.586;2023-05-01T08:56:05;64622.34;;;21.19;67.16
7832;BME280;3961;42.058;25.586;2023-05-01T08:58:32;64715.09;;;21.97;67.13
7832;BME280;3961;42.058;25.586;2023-05-01T09:01:00;64750.41;;;22.30;65.14
7832;BME280;3961;42.058;25.586;2023-05-01T09:03:27;64699.88;;;21.84;65.04
7832;BME280;3961;42.058;25.586;2023-05-01T09:05:56;64640.63;;;21.30;65.59
7832;BME280;3961;42.058;25.586;2023-05-01T09:08:21;64724.69;;;22.07;65.24
7832;BME280;3961;42.058;25.586;2023-05-01T09:10:47;64797.00;;;22.68;65.82
7832;BME280;3961;42.058;25.586;2023-05-01T09:13:13;64842.88;;;23.10;63.15
7832;BME280;3961;42.058;25.586;2023-05-01T09:15:39;64744.34;;;22.22;61.32
7832;BME280;3961;42.058;25.586;2023-05-01T09:18:07;64682.72;;;21.66;61.86
7832;BME280;3961;42.058;25.586;2023-05-01T09:20:33;64685.88;;;21.71;63.87
7832;BME280;3961;42.058;25.586;2023-05-01T09:23:01;64722.13;;;22.03;61.72
7832;BME280;3961;42.058;25.586;2023-05-01T09:25:27;64704.94;;;21.86;61.65
7832;BME280;3961;42.058;25.586;2023-05-01T09:27:53;64732.88;;;22.15;61.18
7832;BME280;3961;42.058;25.586;2023-05-01T09:30:37;64787.63;;;22.60;60.21
7832;BME280;3961;42.058;25.586;2023-05-01T09:33:11;64808.72;;;22.78;59.86
7832;BME280;3961;42.058;25.586;2023-05-01T09:35:50;64817.28;;;22.83;57.69
7832;BME280;3961;42.058;25.586;2023-05-01T09:38:21;64809.31;;;22.78;58.12
7832;BME280;3961;42.058;25.586;2023-05-01T09:40:47;64738.84;;;22.15;59.02
7832;BME280;3961;42.058;25.586;2023-05-01T09:43:22;64775.13;;;22.46;62.36
7832;BME280;3961;42.058;25.586;2023-05-01T09:45:59;64763.06;;;22.38;58.31
7832;BME280;3961;42.058;25.586;2023-05-01T09:48:25;64804.03;;;22.74;62.21
7832;BME280;3961;42.058;25.586;2023-05-01T09:50:50;64830.38;;;22.97;58.95
7832;BME280;3961;42.058;25.586;2023-05-01T09:53:16;64854.16;;;23.15;55.24
7832;BME280;3961;42.058;25.586;2023-05-01T09:55:58;64776.88;;;22.48;53.50
7832;BME280;3961;42.058;25.586;2023-05-01T09:58:28;64717.44;;;21.99;55.59
7832;BME280;3961;42.058;25.586;2023-05-01T10:00:53;64756.78;;;22.28;57.21
7832;BME280;3961;42.058;25.586;2023-05-01T10:03:19;64856.94;;;23.22;55.60
7832;BME280;3961;42.058;25.586;2023-05-01T10:05:44;64846.75;;;23.11;56.60
7832;BME280;3961;42.058;25.586;2023-05-01T10:08:10;64830.38;;;22.97;58.36
7832;BME280;3961;42.058;25.586;2023-05-01T10:10:39;64795.63;;;22.64;59.49
7832;BME280;3961;42.058;25.586;2023-05-01T10:13:15;64732.06;;;22.11;60.05
7832;BME280;3961;42.058;25.586;2023-05-01T10:15:43;64682.13;;;21.66;58.99
7832;BME280;3961;42.058;25.586;2023-05-01T10:18:11;64689.22;;;21.79;59.16
7832;BME280;3961;42.058;25.586;2023-05-01T10:20:37;64704.56;;;21.88;58.43
7832;BME280;3961;42.058;25.586;2023-05-01T10:23:02;64774.75;;;22.49;57.58
7832;BME280;3961;42.058;25.586;2023-05-01T10:25:28;64799.56;;;22.72;57.02
7832;BME280;3961;42.058;25.586;2023-05-01T10:27:54;64778.28;;;22.52;58.43
7832;BME280;3961;42.058;25.586;2023-05-01T10:30:22;64804.59;;;22.74;58.61
7832;BME280;3961;42.058;25.586;2023-05-01T10:32:47;64809.06;;;22.76;56.33
7832;BME280;3961;42.058;25.586;2023-05-01T10:35:25;64845.59;;;23.10;56.14
7832;BME280;3961;42.058;25.586;2023-05-01T10:37:59;64806.94;;;22.76;56.27
7832;BME280;3961;42.058;25.586;2023-05-01T10:40:44;64732.88;;;22.15;55.65
7832;BME280;3961;42.058;25.586;2023-05-01T10:43:31;64631.50;;;21.24;57.71
7832;BME280;3961;42.058;25.586;2023-05-01T10:53:33;64777.81;;;22.46;57.86
7832;BME280;3961;42.058;25.586;2023-05-01T10:55:58;64770.88;;;22.48;58.13
7832;BME280;3961;42.058;25.586;2023-05-01T11:04:03;64819.03;;;22.85;56.76
7832;BME280;3961;42.058;25.586;2023-05-01T11:06:30;64784.13;;;22.57;56.80
7832;BME280;3961;42.058;25.586;2023-05-01T11:08:55;64783.47;;;22.49;57.04
7832;BME280;3961;42.058;25.586;2023-05-01T11:14:03;64767.72;;;22.42;56.21
7832;BME280;3961;42.058;25.586;2023-05-01T11:21:48;64749.25;;;22.29;56.63
7832;BME280;3961;42.058;25.586;2023-05-01T11:24:15;64775.13;;;22.46;55.59
7832;BME280;3961;42.058;25.586;2023-05-01T11:26:43;64757.22;;;22.33;56.75
7832;BME280;3961;42.058;25.586;2023-05-01T11:29:09;64679.78;;;21.64;57.94
7832;BME280;3961;42.058;25.586;2023-05-01T11:31:35;64728.63;;;22.16;56.68
7832;BME280;3961;42.058;25.586;2023-05-01T11:34:02;64738.50;;;22.17;56.71
7832;BME280;3961;42.058;25.586;2023-05-01T11:36:29;64771.59;;;22.43;56.84
7832;BME280;3961;42.058;25.586;2023-05-01T11:38:56;64819.03;;;22.85;55.78
7832;BME280;3961;42.058;25.586;2023-05-01T11:41:23;64815.53;;;22.82;54.13
7832;BME280;3961;42.058;25.586;2023-05-01T11:43:50;64838.81;;;23.06;52.75
7832;BME280;3961;42.058;25.586;2023-05-01T11:48:51;64739.88;;;22.21;56.88
7832;BME280;3961;42.058;25.586;2023-05-01T11:51:17;64717.78;;;21.97;55.34
7832;BME280;3961;42.058;25.586;2023-05-01T11:54:06;64711.81;;;21.96;55.11
7832;BME280;3961;42.058;25.586;2023-05-01T11:56:33;64768.31;;;22.43;54.52
7832;BME280;3961;42.058;25.586;2023-05-01T11:59:11;64734.41;;;22.13;55.24
7832;BME280;3961;42.058;25.586;2023-05-01T12:01:39;64675.34;;;21.62;55.36
7832;BME280;3961;42.058;25.586;2023-05-01T12:04:06;64691.34;;;21.78;59.67
7832;BME280;3961;42.058;25.586;2023-05-01T12:06:36;64727.41;;;22.07;55.39
7832;BME280;3961;42.058;25.586;2023-05-01T12:09:09;64713.34;;;21.95;53.94
7832;BME280;3961;42.058;25.586;2023-05-01T12:11:37;64729.94;;;22.12;54.17
7832;BME280;3961;42.058;25.586;2023-05-01T12:14:03;64757.09;;;22.38;53.50
7832;BME280;3961;42.058;25.586;2023-05-01T12:16:29;64832.13;;;22.98;53.48
7832;BME280;3961;42.058;25.586;2023-05-01T12:18:55;64785.38;;;22.65;50.21
7832;BME280;3961;42.058;25.586;2023-05-01T12:21:21;64809.31;;;22.78;51.11
7832;BME280;3961;42.058;25.586;2023-05-01T12:23:47;64774.41;;;22.51;51.28
7832;BME280;3961;42.058;25.586;2023-05-01T12:26:19;64739.09;;;22.18;51.97
7832;BME280;3961;42.058;25.586;2023-05-01T12:29:12;64735.78;;;22.17;51.92
7832;BME280;3961;42.058;25.586;2023-05-01T12:31:48;64743.75;;;22.22;50.64
7832;BME280;3961;42.058;25.586;2023-05-01T12:34:13;64791.72;;;22.63;51.00
7832;BME280;3961;42.058;25.586;2023-05-01T12:36:39;64774.97;;;22.51;50.11
7832;BME280;3961;42.058;25.586;2023-05-01T12:39:05;64784.72;;;22.57;48.75
7832;BME280;3961;42.058;25.586;2023-05-01T12:41:36;64792.69;;;22.62;49.39
7832;BME280;3961;42.058;25.586;2023-05-01T12:44:26;64765.56;;;22.36;47.78
7832;BME280;3961;42.058;25.586;2023-05-01T12:47:12;64829.94;;;22.92;49.26
7832;BME280;3961;42.058;25.586;2023-05-01T12:49:37;64786.03;;;22.54;48.41
7832;BME280;3961;42.058;25.586;2023-05-01T12:52:05;64804.03;;;22.74;48.53
7832;BME280;3961;42.058;25.586;2023-05-01T12:54:37;64789.97;;;22.62;48.91
7832;BME280;3961;42.058;25.586;2023-05-01T12:57:08;64811.88;;;22.83;47.89
7832;BME280;3961;42.058;25.586;2023-05-01T12:59:35;64795.63;;;22.64;47.97
7832;BME280;3961;42.058;25.586;2023-05-01T13:02:04;64821.38;;;22.87;48.50
7832;BME280;3961;42.058;25.586;2023-05-01T13:04:30;64833.09;;;22.97;48.05
7832;BME280;3961;42.058;25.586;2023-05-01T13:06:56;64796.63;;;22.70;49.10
7832;BME280;3961;42.058;25.586;2023-05-01T13:09:26;64798.41;;;22.71;51.22
7832;BME280;3961;42.058;25.586;2023-05-01T13:12:10;64768.31;;;22.43;49.18
7832;BME280;3961;42.058;25.586;2023-05-01T13:17:05;64739.66;;;22.18;48.71
7832;BME280;3961;42.058;25.586;2023-05-01T13:19:31;64743.75;;;22.22;49.13
7832;BME280;3961;42.058;25.586;2023-05-01T13:21:57;64776.50;;;22.50;50.07
7832;BME280;3961;42.058;25.586;2023-05-01T13:24:24;64804.41;;;22.72;47.11
7832;BME280;3961;42.058;25.586;2023-05-01T13:26:59;64834.84;;;22.98;47.48
7832;BME280;3961;42.058;25.586;2023-05-01T13:29:25;64867.25;;;23.29;47.78
7832;BME280;3961;42.058;25.586;2023-05-01T13:31:51;64875.28;;;23.40;46.74
7832;BME280;3961;42.058;25.586;2023-05-01T13:34:22;64805.41;;;22.77;45.72
7832;BME280;3961;42.058;25.586;2023-05-01T13:36:49;64769.50;;;22.44;47.72
7832;BME280;3961;42.058;25.586;2023-05-01T13:39:18;64760.50;;;22.34;47.04
7832;BME280;3961;42.058;25.586;2023-05-01T13:41:44;64802.28;;;22.72;47.80
7832;BME280;3961;42.058;25.586;2023-05-01T13:44:10;64814.13;;;22.78;47.62
7832;BME280;3961;42.058;25.586;2023-05-01T13:46:39;64827.44;;;22.94;47.15
7832;BME280;3961;42.058;25.586;2023-05-01T13:49:06;64827.22;;;22.92;47.35